createdAt,value
2023-01-13T00:01:29.359Z,46.10
2023-01-13T00:03:57.813Z,46.60
2023-01-13T00:06:26.223Z,43.70
2023-01-13T00:08:55.005Z,41.90
2023-01-13T00:11:24.556Z,47.60
2023-01-13T00:13:52.618Z,40.30
2023-01-13T00:16:21.335Z,40.30
2023-01-13T00:18:51.366Z,40.60
2023-01-13T00:21:24.568Z,41.00
2023-01-13T00:23:54.516Z,41.10
2023-01-13T00:26:28.555Z,40.30
2023-01-13T00:31:28.713Z,40.40
2023-01-13T00:33:58.720Z,43.00
2023-01-13T00:36:27.518Z,39.60
2023-01-13T00:38:55.376Z,45.20
2023-01-13T00:41:25.413Z,43.10
2023-01-13T00:43:53.818Z,39.40
2023-01-13T00:46:22.981Z,40.80
2023-01-13T00:48:51.670Z,45.50
2023-01-13T00:51:21.756Z,43.60
2023-01-13T00:53:51.772Z,38.10
2023-01-13T00:56:39.055Z,38.80
2023-01-13T00:59:11.003Z,39.70
2023-01-13T01:01:40.023Z,35.10
2023-01-13T01:04:08.221Z,35.20
2023-01-13T01:06:36.123Z,36.10
2023-01-13T01:09:04.823Z,36.70
2023-01-13T01:11:34.050Z,34.00
2023-01-13T01:14:04.064Z,32.50
2023-01-13T01:16:33.650Z,36.30
2023-01-13T01:19:02.670Z,41.10
2023-01-13T01:21:31.165Z,35.60
2023-01-13T01:24:01.664Z,37.40
2023-01-13T01:26:30.738Z,35.90
2023-01-13T01:28:59.685Z,39.40
2023-01-13T01:31:33.497Z,35.90
2023-01-13T01:34:02.391Z,34.70
2023-01-13T01:36:30.455Z,35.60
2023-01-13T01:38:59.606Z,32.70
2023-01-13T01:41:31.967Z,32.60
2023-01-13T01:44:04.623Z,35.40
2023-01-13T01:46:36.904Z,30.80
2023-01-13T01:49:14.105Z,29.20
2023-01-13T01:52:16.342Z,31.20
2023-01-13T01:54:49.126Z,29.10
2023-01-13T01:57:26.541Z,33.10
2023-01-13T01:59:55.302Z,31.10
2023-01-13T02:02:23.639Z,30.50
2023-01-13T02:04:55.097Z,33.30
2023-01-13T02:07:29.882Z,33.30
2023-01-13T02:10:01.945Z,34.40
2023-01-13T02:12:32.633Z,34.30
2023-01-13T02:15:22.431Z,36.80
2023-01-13T02:18:09.149Z,34.20
2023-01-13T02:20:43.015Z,34.60
2023-01-13T02:24:08.201Z,33.30
2023-01-13T02:27:03.414Z,33.30
2023-01-13T02:30:05.772Z,31.50
2023-01-13T02:33:14.076Z,31.80
2023-01-13T02:35:55.766Z,32.40
2023-01-13T02:38:31.414Z,34.10
2023-01-13T02:41:33.698Z,32.10
2023-01-13T02:44:06.964Z,35.30
2023-01-13T02:46:42.603Z,32.60
2023-01-13T02:49:17.079Z,35.40
2023-01-13T02:51:47.551Z,33.20
2023-01-13T02:54:24.584Z,34.50
2023-01-13T02:56:54.855Z,37.40
2023-01-13T02:59:26.383Z,34.20
2023-01-13T03:01:57.776Z,34.60
2023-01-13T03:04:50.593Z,32.70
2023-01-13T03:07:36.969Z,37.40
2023-01-13T03:10:25.676Z,32.10
2023-01-13T03:12:53.616Z,33.80
2023-01-13T03:15:40.554Z,32.30
2023-01-13T03:18:28.788Z,35.10
2023-01-13T03:21:11.801Z,37.50
2023-01-13T03:23:50.708Z,35.50
2023-01-13T03:26:44.582Z,35.50
2023-01-13T03:29:23.642Z,35.30
2023-01-13T03:32:13.291Z,33.30
2023-01-13T03:34:57.639Z,31.60
2023-01-13T03:37:33.505Z,31.60
2023-01-13T03:40:08.774Z,29.90
2023-01-13T03:45:12.259Z,31.00
2023-01-13T03:47:42.796Z,32.60
2023-01-13T03:50:17.726Z,30.10
2023-01-13T03:52:52.092Z,30.40
2023-01-13T03:55:24.813Z,32.80
2023-01-13T03:58:06.959Z,31.60
2023-01-13T04:00:46.510Z,29.30
2023-01-13T04:03:23.288Z,30.20
2023-01-13T04:05:56.709Z,27.70
2023-01-13T04:08:27.065Z,28.10
2023-01-13T04:11:07.440Z,30.40
2023-01-13T04:13:39.356Z,28.10
2023-01-13T04:16:09.004Z,30.60
2023-01-13T04:18:39.034Z,32.20
2023-01-13T04:21:08.046Z,35.00
2023-01-13T04:23:37.560Z,31.90
2023-01-13T04:26:05.710Z,31.10
2023-01-13T04:28:35.215Z,31.50
2023-01-13T04:31:03.331Z,30.00
2023-01-13T04:33:31.266Z,34.40
2023-01-13T04:35:59.640Z,29.30
2023-01-13T04:38:27.811Z,32.10
2023-01-13T04:40:55.883Z,26.50
2023-01-13T04:43:23.848Z,28.80
2023-01-13T04:45:52.065Z,30.20
2023-01-13T04:48:20.180Z,35.50
2023-01-13T04:50:48.141Z,30.90
2023-01-13T04:53:16.307Z,31.80
2023-01-13T04:55:44.675Z,32.50
2023-01-13T04:58:13.615Z,40.20
2023-01-13T05:00:42.000Z,28.40
2023-01-13T05:03:10.393Z,30.40
2023-01-13T05:05:39.048Z,31.90
2023-01-13T05:08:07.178Z,31.80
2023-01-13T05:10:35.168Z,33.30
2023-01-13T05:13:21.559Z,35.40
2023-01-13T05:16:10.512Z,33.50
2023-01-13T05:18:40.990Z,34.30
2023-01-13T05:21:29.089Z,27.80
2023-01-13T05:24:16.908Z,31.50
2023-01-13T05:26:44.991Z,30.90
2023-01-13T05:29:12.987Z,27.40
2023-01-13T05:31:41.447Z,31.10
2023-01-13T05:34:10.016Z,30.40
2023-01-13T05:36:38.425Z,31.60
2023-01-13T05:39:09.366Z,34.60
2023-01-13T05:41:55.914Z,35.30
2023-01-13T05:44:24.494Z,33.20
2023-01-13T05:46:52.685Z,29.90
2023-01-13T05:49:20.698Z,32.90
2023-01-13T05:51:49.203Z,42.10
2023-01-13T05:54:17.955Z,31.60
2023-01-13T05:56:46.065Z,40.60
2023-01-13T05:59:16.930Z,30.20
2023-01-13T06:01:45.999Z,32.60
2023-01-13T06:04:14.075Z,35.10
2023-01-13T06:06:43.626Z,31.80
2023-01-13T06:09:11.854Z,31.00
2023-01-13T06:11:39.863Z,31.00
2023-01-13T06:14:08.108Z,34.40
2023-01-13T06:16:36.339Z,34.20
2023-01-13T06:19:09.101Z,34.60
2023-01-13T06:21:37.990Z,34.30
2023-01-13T06:24:08.011Z,33.90
2023-01-13T06:26:41.607Z,35.50
2023-01-13T06:29:14.713Z,34.50
2023-01-13T06:31:44.070Z,38.00
2023-01-13T06:34:14.286Z,31.40
2023-01-13T06:36:48.498Z,33.60
2023-01-13T06:39:20.244Z,33.70
2023-01-13T06:42:11.445Z,36.00
2023-01-13T06:44:39.987Z,28.10
2023-01-13T06:47:11.584Z,35.60
2023-01-13T06:49:39.577Z,32.90
2023-01-13T06:52:09.025Z,34.80
2023-01-13T06:54:37.128Z,28.70
2023-01-13T06:57:05.629Z,28.80
2023-01-13T06:59:35.268Z,29.00
2023-01-13T07:02:06.009Z,30.40
2023-01-13T07:04:34.040Z,31.00
2023-01-13T07:07:02.130Z,32.20
2023-01-13T07:09:30.124Z,28.80
2023-01-13T07:11:59.686Z,33.50
2023-01-13T07:14:46.557Z,35.90
2023-01-13T07:17:14.771Z,34.70
2023-01-13T07:19:42.899Z,33.70
2023-01-13T07:22:15.871Z,34.60
2023-01-13T07:24:44.463Z,29.10
2023-01-13T07:27:12.532Z,31.20
2023-01-13T07:29:41.674Z,34.30
2023-01-13T07:32:11.007Z,34.60
2023-01-13T07:34:39.135Z,35.90
2023-01-13T07:37:08.058Z,37.80
2023-01-13T07:39:35.979Z,38.30
2023-01-13T07:42:24.196Z,37.50
2023-01-13T07:44:52.164Z,35.10
2023-01-13T07:47:23.301Z,38.00
2023-01-13T07:49:51.468Z,38.40
2023-01-13T07:52:19.558Z,36.40
2023-01-13T07:54:47.743Z,36.50
2023-01-13T07:57:17.642Z,37.90
2023-01-13T07:59:45.845Z,37.10
2023-01-13T08:02:14.226Z,40.10
2023-01-13T08:04:42.470Z,35.30
2023-01-13T08:07:11.213Z,40.20
2023-01-13T08:09:39.284Z,40.40
2023-01-13T08:12:25.911Z,49.20
2023-01-13T08:14:54.387Z,44.90
2023-01-13T08:17:22.543Z,43.80
2023-01-13T08:19:50.483Z,40.10
2023-01-13T08:22:18.537Z,42.00
2023-01-13T08:24:46.840Z,34.70
2023-01-13T08:27:15.511Z,37.80
2023-01-13T08:29:43.880Z,39.60
2023-01-13T08:32:12.427Z,35.20
2023-01-13T08:34:41.254Z,37.80
2023-01-13T08:37:09.646Z,37.10
2023-01-13T08:39:43.222Z,41.10
2023-01-13T08:42:11.327Z,39.30
2023-01-13T08:44:39.613Z,40.50
2023-01-13T08:47:10.224Z,46.30
2023-01-13T08:49:38.490Z,46.00
2023-01-13T08:52:41.910Z,47.20
2023-01-13T08:55:25.715Z,45.00
2023-01-13T08:58:00.485Z,45.40
2023-01-13T09:00:35.517Z,47.00
2023-01-13T09:03:06.206Z,51.20
2023-01-13T09:05:36.644Z,45.10
2023-01-13T09:08:04.995Z,52.40
2023-01-13T09:10:35.916Z,57.30
2023-01-13T09:13:13.144Z,46.60
2023-01-13T09:15:46.142Z,51.10
2023-01-13T09:18:14.771Z,51.60
2023-01-13T09:20:45.385Z,54.70
2023-01-13T09:23:13.432Z,49.60
2023-01-13T09:25:41.644Z,55.20
2023-01-13T09:28:13.762Z,52.20
2023-01-13T09:30:42.222Z,49.60
2023-01-13T09:33:29.201Z,46.60
2023-01-13T09:36:01.396Z,61.70
2023-01-13T09:38:31.776Z,52.60
2023-01-13T09:40:59.937Z,50.00
2023-01-13T09:43:56.616Z,49.70
2023-01-13T09:46:45.387Z,38.00
2023-01-13T09:49:25.139Z,44.50
2023-01-13T09:52:21.063Z,33.40
2023-01-13T09:54:53.120Z,29.60
2023-01-13T09:57:21.980Z,34.40
2023-01-13T09:59:54.356Z,38.30
2023-01-13T10:02:37.384Z,32.50
2023-01-13T10:05:11.099Z,31.40
2023-01-13T10:07:57.740Z,32.40
2023-01-13T10:10:54.354Z,32.20
2023-01-13T10:13:28.387Z,35.30
2023-01-13T10:16:11.487Z,35.90
2023-01-13T10:19:10.892Z,32.20
2023-01-13T10:21:42.266Z,33.80
2023-01-13T10:24:20.536Z,27.90
2023-01-13T10:27:24.080Z,25.70
2023-01-13T10:29:52.748Z,24.70
2023-01-13T10:32:20.931Z,28.80
2023-01-13T10:34:51.670Z,34.40
2023-01-13T10:37:28.188Z,29.20
2023-01-13T10:40:01.957Z,30.90
2023-01-13T10:42:30.065Z,31.00
2023-01-13T10:45:02.952Z,31.60
2023-01-13T10:47:34.491Z,28.30
2023-01-13T10:50:10.838Z,37.00
2023-01-13T10:52:43.612Z,24.00
2023-01-13T10:55:35.619Z,23.90
2023-01-13T10:58:21.520Z,26.30
2023-01-13T11:00:58.663Z,26.60
2023-01-13T11:03:36.557Z,27.50
2023-01-13T11:06:04.946Z,28.50
2023-01-13T11:08:45.481Z,31.10
2023-01-13T11:11:44.492Z,36.00
2023-01-13T11:14:41.558Z,26.00
2023-01-13T11:17:40.657Z,18.50
2023-01-13T11:20:11.998Z,13.30
2023-01-13T11:22:53.095Z,20.20
2023-01-13T11:25:42.973Z,18.30
2023-01-13T11:28:30.462Z,13.60
2023-01-13T11:31:24.728Z,12.60
2023-01-13T11:34:08.324Z,20.70
2023-01-13T11:36:46.469Z,20.70
2023-01-13T11:39:44.438Z,22.20
2023-01-13T11:42:31.577Z,19.20
2023-01-13T11:45:28.901Z,17.40
2023-01-13T11:48:00.552Z,20.00
2023-01-13T11:50:41.697Z,20.20
2023-01-13T11:53:41.697Z,23.70
2023-01-13T11:56:40.836Z,28.20
2023-01-13T11:59:09.152Z,22.90
2023-01-13T12:01:46.920Z,24.10
2023-01-13T12:04:38.916Z,16.20
2023-01-13T12:07:32.775Z,18.60
2023-01-13T12:10:30.075Z,18.20
2023-01-13T12:13:14.406Z,20.40
2023-01-13T12:16:01.317Z,18.70
2023-01-13T12:18:50.019Z,18.90
2023-01-13T12:21:21.520Z,20.50
2023-01-13T12:24:02.274Z,17.20
2023-01-13T12:26:37.803Z,18.10
2023-01-13T12:29:20.935Z,14.90
2023-01-13T12:31:52.215Z,16.00
2023-01-13T12:34:29.239Z,17.60
2023-01-13T12:37:08.945Z,16.20
2023-01-13T12:39:57.354Z,22.70
2023-01-13T12:42:46.728Z,22.80
2023-01-13T12:45:15.780Z,17.50
2023-01-13T12:47:48.816Z,20.60
2023-01-13T12:50:23.709Z,14.40
2023-01-13T12:52:52.303Z,14.30
2023-01-13T12:55:38.924Z,14.70
2023-01-13T12:58:08.251Z,16.80
2023-01-13T13:00:38.348Z,12.40
2023-01-13T13:03:12.680Z,10.40
2023-01-13T13:06:18.539Z,11.90
2023-01-13T13:09:04.415Z,12.40
2023-01-13T13:11:58.568Z,16.90
2023-01-13T13:14:42.022Z,14.30
2023-01-13T13:17:32.450Z,11.30
2023-01-13T13:20:03.857Z,25.50
2023-01-13T13:22:46.539Z,16.10
2023-01-13T13:25:22.798Z,18.70
2023-01-13T13:28:02.727Z,16.70
2023-01-13T13:30:36.854Z,11.20
2023-01-13T13:33:21.052Z,13.90
2023-01-13T13:36:03.731Z,15.10
2023-01-13T13:39:21.627Z,14.60
2023-01-13T13:42:12.697Z,14.60
2023-01-13T13:45:05.321Z,13.60
2023-01-13T13:47:38.001Z,13.30
2023-01-13T13:50:19.802Z,19.60
2023-01-13T13:53:05.905Z,16.90
2023-01-13T13:55:36.801Z,16.20
2023-01-13T13:58:05.994Z,16.50
2023-01-13T14:00:38.195Z,18.00
2023-01-13T14:03:20.928Z,18.20
2023-01-13T14:05:56.417Z,14.30
2023-01-13T14:08:25.420Z,18.30
2023-01-13T14:10:54.805Z,14.40
2023-01-13T14:13:31.496Z,21.50
2023-01-13T14:16:06.893Z,13.80
2023-01-13T14:18:49.367Z,16.50
2023-01-13T14:21:25.129Z,20.30
2023-01-13T14:24:15.572Z,18.00
2023-01-13T14:26:43.777Z,16.80
2023-01-13T14:29:18.498Z,19.80
2023-01-13T14:31:47.833Z,15.20
2023-01-13T14:34:30.639Z,16.90
2023-01-13T14:37:03.085Z,17.00
2023-01-13T14:39:41.731Z,18.80
2023-01-13T14:42:15.607Z,28.70
2023-01-13T14:44:51.077Z,23.80
2023-01-13T14:47:21.903Z,19.80
2023-01-13T14:50:05.778Z,24.20
2023-01-13T14:52:38.320Z,25.10
2023-01-13T14:55:06.951Z,24.30
2023-01-13T14:57:41.808Z,20.30
2023-01-13T15:00:15.899Z,18.90
2023-01-13T15:03:05.781Z,20.20
2023-01-13T15:05:42.728Z,26.90
2023-01-13T15:08:14.782Z,21.70
2023-01-13T15:10:54.861Z,20.80
2023-01-13T15:13:22.843Z,21.50
2023-01-13T15:15:53.522Z,22.40
2023-01-13T15:18:21.751Z,20.00
2023-01-13T15:20:52.436Z,22.00
2023-01-13T15:23:21.160Z,23.50
2023-01-13T15:25:49.861Z,21.90
2023-01-13T15:28:25.462Z,26.50
2023-01-13T15:31:00.729Z,20.70
2023-01-13T15:33:30.913Z,25.80
2023-01-13T15:35:59.083Z,28.00
2023-01-13T15:38:30.543Z,29.80
2023-01-13T15:41:01.281Z,24.80
2023-01-13T15:43:48.504Z,22.80
2023-01-13T15:46:37.370Z,22.20
2023-01-13T15:49:13.357Z,24.00
2023-01-13T15:51:41.633Z,25.10
2023-01-13T15:54:09.726Z,27.70
2023-01-13T15:56:39.680Z,23.60
2023-01-13T15:59:34.621Z,24.80
2023-01-13T16:02:03.376Z,26.00
2023-01-13T16:04:31.581Z,26.50
2023-01-13T16:07:10.155Z,31.60
2023-01-13T16:09:39.406Z,31.70
2023-01-13T16:12:08.054Z,41.70
2023-01-13T16:14:36.781Z,42.00
2023-01-13T16:17:17.433Z,37.80
2023-01-13T16:19:46.570Z,35.50
2023-01-13T16:22:16.321Z,62.70
2023-01-13T16:24:45.757Z,34.80
2023-01-13T16:27:17.404Z,39.20
2023-01-13T16:29:46.887Z,48.90
2023-01-13T16:32:17.476Z,47.90
2023-01-13T16:34:46.864Z,50.10
2023-01-13T16:37:20.979Z,48.60
2023-01-13T16:39:49.198Z,49.30
2023-01-13T16:42:17.800Z,41.90
2023-01-13T16:44:48.297Z,55.80
2023-01-13T16:47:17.898Z,55.70
2023-01-13T16:49:46.492Z,58.70
2023-01-13T16:52:17.907Z,60.20
2023-01-13T16:54:46.072Z,55.60
2023-01-13T16:57:15.283Z,54.50
2023-01-13T16:59:44.625Z,54.50
2023-01-13T17:02:20.258Z,55.80
2023-01-13T17:04:50.101Z,49.50
2023-01-13T17:07:18.509Z,50.70
2023-01-13T17:09:46.584Z,45.60
2023-01-13T17:12:14.721Z,41.90
2023-01-13T17:14:43.542Z,46.30
2023-01-13T17:17:28.210Z,43.80
2023-01-13T17:19:56.615Z,39.50
2023-01-13T17:22:25.603Z,38.10
2023-01-13T17:24:54.995Z,32.20
2023-01-13T17:27:23.535Z,39.60
2023-01-13T17:29:52.548Z,33.80
2023-01-13T17:32:23.072Z,39.00
2023-01-13T17:34:54.073Z,39.30
2023-01-13T17:37:22.954Z,37.70
2023-01-13T17:39:53.764Z,33.40
2023-01-13T17:42:25.100Z,40.60
2023-01-13T17:44:53.236Z,47.10
2023-01-13T17:47:21.756Z,41.60
2023-01-13T17:49:50.477Z,39.10
2023-01-13T17:52:18.975Z,44.70
2023-01-13T17:54:47.378Z,36.00
2023-01-13T17:57:15.355Z,39.70
2023-01-13T17:59:43.544Z,39.50
2023-01-13T18:02:12.794Z,37.20
2023-01-13T18:04:41.730Z,37.90
2023-01-13T18:07:10.434Z,37.10
2023-01-13T18:09:39.249Z,49.40
2023-01-13T18:12:07.456Z,39.80
2023-01-13T18:14:35.484Z,43.00
2023-01-13T18:17:03.805Z,45.30
2023-01-13T18:19:51.151Z,42.60
2023-01-13T18:22:37.908Z,40.80
2023-01-13T18:25:25.014Z,45.20
2023-01-13T18:27:53.135Z,42.20
2023-01-13T18:30:21.478Z,44.50
2023-01-13T18:32:49.628Z,36.30
2023-01-13T18:35:20.070Z,40.40
2023-01-13T18:37:48.365Z,41.60
2023-01-13T18:40:17.449Z,44.50
2023-01-13T18:42:54.810Z,43.80
2023-01-13T18:45:32.468Z,40.60
2023-01-13T18:48:02.780Z,40.20
2023-01-13T18:50:37.072Z,41.30
2023-01-13T18:53:05.346Z,38.20
2023-01-13T18:55:33.518Z,45.60
2023-01-13T18:58:01.587Z,44.60
2023-01-13T19:00:36.723Z,53.00
2023-01-13T19:05:38.294Z,56.80
2023-01-13T19:08:06.988Z,54.80
2023-01-13T19:10:36.217Z,52.30
2023-01-13T19:13:12.023Z,56.70
2023-01-13T19:15:41.721Z,53.80
2023-01-13T19:18:09.937Z,60.10
2023-01-13T19:20:38.393Z,49.20
2023-01-13T19:23:06.601Z,56.30
2023-01-13T19:25:36.117Z,53.30
2023-01-13T19:28:04.497Z,52.60
2023-01-13T19:30:32.666Z,53.70
2023-01-13T19:33:00.758Z,58.30
2023-01-13T19:35:29.000Z,60.90
2023-01-13T19:37:58.499Z,54.70
2023-01-13T19:40:27.339Z,63.40
2023-01-13T19:43:14.017Z,57.50
2023-01-13T19:45:42.362Z,39.70
2023-01-13T19:48:10.950Z,38.80
2023-01-13T19:50:40.480Z,44.50
2023-01-13T19:53:16.639Z,48.90
2023-01-13T19:55:49.289Z,45.50
2023-01-13T19:58:20.724Z,50.40
2023-01-13T20:00:51.500Z,39.70
2023-01-13T20:03:26.198Z,48.10
2023-01-13T20:06:04.038Z,42.80
2023-01-13T20:08:34.501Z,44.20
2023-01-13T20:11:21.301Z,40.80
2023-01-13T20:13:52.070Z,38.30
2023-01-13T20:16:20.210Z,44.00
2023-01-13T20:18:51.873Z,43.00
2023-01-13T20:21:19.884Z,45.90
2023-01-13T20:23:53.813Z,51.10
2023-01-13T20:26:21.813Z,45.80
2023-01-13T20:28:49.750Z,45.60
2023-01-13T20:31:17.966Z,45.40
2023-01-13T20:33:51.031Z,46.60
2023-01-13T20:36:31.506Z,48.40
2023-01-13T20:39:02.291Z,54.60
2023-01-13T20:41:49.003Z,47.90
2023-01-13T20:44:17.015Z,39.90
2023-01-13T20:46:45.607Z,43.70
2023-01-13T20:49:15.281Z,48.10
2023-01-13T20:51:43.206Z,46.90
2023-01-13T20:54:11.457Z,44.20
2023-01-13T20:56:41.798Z,41.20
2023-01-13T20:59:10.615Z,48.60
2023-01-13T21:01:38.967Z,38.10
2023-01-13T21:04:07.260Z,55.90
2023-01-13T21:06:36.238Z,42.60
2023-01-13T21:09:04.680Z,44.20
2023-01-13T21:11:51.433Z,41.30
2023-01-13T21:14:41.280Z,48.10
2023-01-13T21:17:31.419Z,51.00
2023-01-13T21:20:04.308Z,42.70
2023-01-13T21:22:32.848Z,45.80
2023-01-13T21:25:02.435Z,58.80
2023-01-13T21:27:31.440Z,49.00
2023-01-13T21:29:59.456Z,50.00
2023-01-13T21:32:27.541Z,55.80
2023-01-13T21:34:59.418Z,50.30
2023-01-13T21:37:27.577Z,56.40
2023-01-13T21:39:55.922Z,55.70
2023-01-13T21:42:43.130Z,56.10
2023-01-13T21:45:30.171Z,54.80
2023-01-13T21:47:58.378Z,49.30
2023-01-13T21:50:28.861Z,53.00
2023-01-13T21:52:58.545Z,50.50
2023-01-13T21:55:29.794Z,53.20
2023-01-13T21:57:57.751Z,54.40
2023-01-13T22:00:29.823Z,64.10
2023-01-13T22:03:00.294Z,63.60
2023-01-13T22:05:28.472Z,61.70
2023-01-13T22:07:56.457Z,70.10
2023-01-13T22:10:27.357Z,67.90
2023-01-13T22:12:57.912Z,61.70
2023-01-13T22:15:28.457Z,60.50
2023-01-13T22:17:57.248Z,57.10
2023-01-13T22:20:26.765Z,59.70
2023-01-13T22:22:54.723Z,55.20
2023-01-13T22:25:23.749Z,54.10
2023-01-13T22:27:56.473Z,56.60
2023-01-13T22:30:25.237Z,50.40
2023-01-13T22:32:54.261Z,52.20
2023-01-13T22:35:22.320Z,52.80
2023-01-13T22:37:50.426Z,49.00
2023-01-13T22:40:18.728Z,51.50
2023-01-13T22:42:46.927Z,53.10
2023-01-13T22:45:15.409Z,50.90
2023-01-13T22:47:44.286Z,58.60
2023-01-13T22:50:12.726Z,51.90
2023-01-13T22:52:40.841Z,48.20
2023-01-13T22:55:09.541Z,48.90
2023-01-13T22:57:47.754Z,48.60
2023-01-13T23:00:21.008Z,44.90
2023-01-13T23:02:51.078Z,53.10
2023-01-13T23:05:19.280Z,46.50
2023-01-13T23:07:47.325Z,40.90
2023-01-13T23:10:15.662Z,41.20
2023-01-13T23:12:43.819Z,42.90
2023-01-13T23:15:13.094Z,44.10
2023-01-13T23:17:41.520Z,42.70
2023-01-13T23:20:10.687Z,41.10
2023-01-13T23:22:40.840Z,44.30
2023-01-13T23:25:10.045Z,38.30
2023-01-13T23:27:38.415Z,42.90
2023-01-13T23:30:09.170Z,43.60
2023-01-13T23:32:37.558Z,42.30
2023-01-13T23:35:06.076Z,44.10
2023-01-13T23:37:34.535Z,44.10
2023-01-13T23:40:04.497Z,44.60
2023-01-13T23:42:32.482Z,41.50
2023-01-13T23:45:01.984Z,44.50
2023-01-13T23:47:30.463Z,39.90
2023-01-13T23:49:58.443Z,44.90
2023-01-13T23:52:27.879Z,45.00
2023-01-13T23:54:57.184Z,40.80
2023-01-13T23:57:25.759Z,36.30
2023-01-13T23:59:53.800Z,45.10
